Accueil
METAR-TAF:

METAR-TAF

Aéroports :

Aéroport de Lyon-Saint-Exupéry

Lyon / Saint Exupéry, France

latitude: 45-44N, longitude: 005-05E, altitude: 248 m

Observation

Le bulletin a été fait il y a 34 minutes, à 16:30 UTC
Vent 10 kt de nord
Température 18°C
Humidité 42%
Pression 1022 hPa
Visibilité 10 km ou plus
pas de nuages en-dessous de 1500 mètres et pas de cumulonimbus.

METAR: LFLL 241630Z 01010KT CAVOK 18/05 Q1022 NOSIG

Heure: 18:04 (17:04 UTC)

Prévision

Le bulletin a été fait il y a 6 heures et 4 minutes, à 11:00 UTC
Prévision valable du 24 à 12 UTC au 25 à 18 UTC
Vent 10 kt de nord
Visibilité 10 km ou plus
pas de nuages en-dessous de 1500 mètres et pas de cumulonimbus.
Probabilité 40% :
Temporairement
du 25 à 04 UTC au 25 à 09 UTC
Nuages fragmentés à une hauteur de 1400 ft
Temporairement
du 25 à 09 UTC au 25 à 18 UTC
Vent 20 kt de nord

TAF: LFLL 241100Z 2412/2518 36010KT CAVOK PROB40 TEMPO 2504/2509 BKN014 TEMPO 2509/2518 36020KT

Observations et prévisions météorologiques de plus de 4000 aéroports (messages METAR et TAF).

Les stations disponibles sont représentées par des disques jaunes et rouges sur la carte.

Passer la souris dessus pour voir le nom de la station.

Cliquer dessus pour voir les observations et prévisions météorologiques.

Pour changer de carte: cliquez sur les boutons verts avec une croix noire pour zoomer, sur le bouton vert avec un tiret pour effectuer un zoom arrière, ou sur les flèches vertes pour les cartes adjacentes.


METAR-TAF: